This is the latest recevied weather packets stored in our database for station/object AE6BH. If no packets are shown the sender has not sent any weather packets the latest 1 day(s).
| Time | Temp. | Humidity | Pressure | Rain* | Wind** | Luminosity | Snow |
|---|---|---|---|---|---|---|---|
| 1778107760 | 20.56° C | 52% | 1016.6 hPa | 0 mm | - | 64 W/m² | - |
| 1778106849 | 20.56° C | 53% | 1016.5 hPa | 0 mm | - | 252 W/m² | - |
| 1778105940 | 21.67° C | 51% | 1016.5 hPa | 0 mm | - | 618 W/m² | - |
| 1778103514 | 21.67° C | 52% | 1016.8 hPa | 0 mm | - | 673 W/m² | - |
| 1778102299 | 22.22° C | 50% | 1016.9 hPa | 0 mm | - | 710 W/m² | - |
| 1778100479 | 22.22° C | 49% | 1016.9 hPa | 0 mm | - | 776 W/m² | - |
| 1778098965 | 21.67° C | 50% | 1017.4 hPa | 0 mm | - | 695 W/m² | - |
| 1778097752 | 22.22° C | 48% | 1017.5 hPa | 0 mm | - | 729 W/m² | - |
| 1778097145 | 23.89° C | 45% | 1017.2 hPa | 0 mm | - | 738 W/m² | - |
| 1778092598 | 22.22° C | 46% | 1017.9 hPa | 0 mm | - | 770 W/m² | - |
| 1778092294 | 22.22° C | 44% | 1018.2 hPa | 0 mm | - | 753 W/m² | - |
| 1778091992 | 21.11° C | 47% | 1018.2 hPa | 0 mm | - | 746 W/m² | - |
| 1778090173 | 21.11° C | 46% | 1018.4 hPa | 0 mm | - | 768 W/m² | - |
| 1778089869 | 21.11° C | 47% | 1018.6 hPa | 0 mm | - | 770 W/m² | - |
| 1778089264 | 20.56° C | 48% | 1018.4 hPa | 0 mm | - | 811 W/m² | - |
| 1778088962 | 20.56° C | 49% | 1018.6 hPa | 0 mm | - | 820 W/m² | - |
| 1778088356 | 18.89° C | 52% | 1018.5 hPa | 0 mm | - | 816 W/m² | - |
| 1778088052 | 18.89° C | 52% | 1018.8 hPa | 0 mm | - | 798 W/m² | - |
| 1778086836 | 18.89° C | 53% | 1018.9 hPa | 0 mm | - | 654 W/m² | - |
| 1778086534 | 18.89° C | 52% | 1018.8 hPa | 0 mm | - | 647 W/m² | - |
| 1778086230 | 19.44° C | 52% | 1018.7 hPa | 0 mm | - | 647 W/m² | - |
| 1778085016 | 18.33° C | 59% | 1018.8 hPa | 0 mm | - | 547 W/m² | - |
| 1778084410 | 17.22° C | 64% | 1018.7 hPa | 0 mm | - | 520 W/m² | - |
| 1778081486 | 16.11° C | 69% | 1018.9 hPa | 0 mm | - | 228 W/m² | - |
| 1778078760 | 11.67° C | 88% | 1018.9 hPa | 0 mm | - | 47 W/m² | - |
* Rain latest hour (hover to see other rain measurements)
** Current wind speed in m/s (hover to see current wind gust speed)